Time;durP1;ratioP1;P1;durP2;ratioP2;P2;SDS_P1;SDS_P2;PMS_P1;PMS_P2;Temp;Humidity;BMP_temperature;BMP_pressure;BME280_temperature;BME280_humidity;BME280_pressure;Samples;Min_cycle;Max_cycle;Signal;HPM_P1;HPM_P2
2023/12/25 00:00:49;;;;;;;13.47;1.90;;;10.50;99.90;;;;;;5114260;28;20238;-50
2023/12/25 00:03:15;;;;;;;8.27;2.17;;;10.50;99.90;;;;;;5111995;28;20677;-50
2023/12/25 00:05:40;;;;;;;7.10;1.57;;;10.50;99.90;;;;;;5111580;28;20289;-50
2023/12/25 00:08:06;;;;;;;10.50;2.17;;;10.50;99.90;;;;;;5110539;28;20240;-50
2023/12/25 00:10:32;;;;;;;9.20;1.70;;;10.50;99.90;;;;;;5109590;28;20187;-50
2023/12/25 00:12:58;;;;;;;11.30;1.97;;;10.50;99.90;;;;;;5112973;28;20176;-50
2023/12/25 00:15:23;;;;;;;7.87;1.50;;;10.50;99.90;;;;;;5112276;28;20187;-50
2023/12/25 00:17:49;;;;;;;6.37;1.50;;;10.60;99.90;;;;;;5110525;28;20541;-50
2023/12/25 00:20:14;;;;;;;10.60;1.40;;;10.60;99.90;;;;;;5111590;28;20619;-51
2023/12/25 00:22:40;;;;;;;11.50;1.73;;;10.60;99.90;;;;;;5111147;28;20203;-51
2023/12/25 00:25:06;;;;;;;7.00;1.60;;;10.60;96.20;;;;;;5093163;28;20188;-51
2023/12/25 00:27:31;;;;;;;8.73;1.50;;;10.60;85.80;;;;;;5111100;28;20225;-50
2023/12/25 00:29:57;;;;;;;8.33;1.40;;;10.60;87.40;;;;;;5110389;28;20176;-51
2023/12/25 00:32:22;;;;;;;4.73;1.50;;;10.60;76.10;;;;;;5112426;28;20177;-50
2023/12/25 00:34:48;;;;;;;6.53;1.33;;;10.60;75.90;;;;;;5111016;28;20181;-50
2023/12/25 00:37:14;;;;;;;12.43;2.10;;;10.60;75.00;;;;;;5110818;28;20312;-51
2023/12/25 00:39:39;;;;;;;12.03;1.60;;;10.60;71.30;;;;;;5111367;28;20181;-50
2023/12/25 00:42:05;;;;;;;7.20;1.50;;;10.60;64.10;;;;;;5110231;28;20262;-50
2023/12/25 00:44:30;;;;;;;1.83;0.90;;;10.70;56.80;;;;;;5110758;28;20219;-50
2023/12/25 00:46:56;;;;;;;7.23;1.67;;;10.60;49.00;;;;;;5110203;28;20241;-50
2023/12/25 00:49:22;;;;;;;7.93;1.30;;;10.60;49.30;;;;;;5111151;28;20195;-51
2023/12/25 00:51:47;;;;;;;8.37;1.50;;;10.60;50.10;;;;;;5111303;28;20184;-50
2023/12/25 00:54:13;;;;;;;8.40;1.97;;;10.60;49.80;;;;;;5111153;28;20230;-51
2023/12/25 00:56:38;;;;;;;8.83;1.70;;;10.60;48.80;;;;;;5109718;28;20176;-51
2023/12/25 00:59:04;;;;;;;5.43;1.43;;;10.60;46.40;;;;;;5110739;28;20173;-51
2023/12/25 01:01:30;;;;;;;7.07;1.80;;;10.60;48.60;;;;;;5110159;28;20200;-51
2023/12/25 01:03:55;;;;;;;13.93;1.73;;;10.60;53.20;;;;;;5110969;28;20245;-50
2023/12/25 01:06:21;;;;;;;7.27;1.50;;;10.60;50.60;;;;;;5110219;28;20189;-51
2023/12/25 01:08:47;;;;;;;6.17;1.47;;;10.60;49.60;;;;;;5110709;28;20185;-51
2023/12/25 01:11:12;;;;;;;5.77;1.17;;;10.60;46.50;;;;;;5110125;28;20564;-51
2023/12/25 01:13:38;;;;;;;7.87;1.30;;;10.60;48.30;;;;;;5110603;28;20185;-51
2023/12/25 01:16:04;;;;;;;7.70;1.27;;;10.70;47.50;;;;;;5109696;28;20181;-49
2023/12/25 01:18:29;;;;;;;5.23;1.13;;;10.70;40.60;;;;;;5110252;28;20172;-51
2023/12/25 01:20:55;;;;;;;7.13;1.30;;;10.70;32.20;;;;;;5110844;28;20450;-51
2023/12/25 01:23:21;;;;;;;4.77;1.30;;;10.80;30.00;;;;;;5110605;28;20204;-51
2023/12/25 01:25:46;;;;;;;4.20;1.10;;;10.80;29.60;;;;;;5110094;28;20691;-50
2023/12/25 01:28:12;;;;;;;8.70;1.60;;;10.80;26.70;;;;;;5111117;28;20181;-50
2023/12/25 01:30:37;;;;;;;3.40;1.60;;;10.90;41.60;;;;;;5108745;28;20243;-50
2023/12/25 01:33:03;;;;;;;7.50;1.57;;;10.80;30.50;;;;;;5110982;28;20176;-50
2023/12/25 01:35:29;;;;;;;5.97;1.30;;;10.80;28.40;;;;;;5110350;28;20177;-50
2023/12/25 01:37:54;;;;;;;4.50;1.07;;;10.70;28.10;;;;;;5111273;28;20649;-50
2023/12/25 01:40:21;;;;;;;8.03;1.30;;;10.80;25.80;;;;;;5114222;28;20204;-50
2023/12/25 01:42:47;;;;;;;5.03;1.60;;;10.80;27.60;;;;;;5114464;28;20193;-50
2023/12/25 01:45:13;;;;;;;3.03;1.50;;;10.80;27.70;;;;;;5113829;28;20410;-53
2023/12/25 01:47:39;;;;;;;8.60;2.37;;;10.80;24.70;;;;;;5113189;28;20482;-53
2023/12/25 01:50:06;;;;;;;6.67;1.70;;;10.80;22.20;;;;;;5114555;28;20570;-52
2023/12/25 01:52:31;;;;;;;6.53;1.70;;;10.80;26.70;;;;;;5113390;28;20792;-52
2023/12/25 01:54:58;;;;;;;10.90;1.90;;;10.80;25.50;;;;;;5114916;28;20423;-52
2023/12/25 01:57:26;;;;;;;8.00;1.60;;;10.80;26.10;;;;;;5114197;28;20184;-53
2023/12/25 01:59:51;;;;;;;9.50;1.60;;;10.80;19.30;;;;;;5113388;28;20919;-53
2023/12/25 02:02:20;;;;;;;11.50;1.60;;;10.90;16.30;;;;;;5113541;28;20478;-52
2023/12/25 02:04:46;;;;;;;12.07;1.70;;;10.90;16.00;;;;;;5114066;28;20189;-53
2023/12/25 02:07:14;;;;;;;6.90;1.70;;;10.90;8.30;;;;;;5112811;28;20481;-53
2023/12/25 02:09:39;;;;;;;7.53;1.60;;;10.90;8.60;;;;;;5114313;28;20409;-53
2023/12/25 02:12:05;;;;;;;4.63;1.23;;;10.90;10.70;;;;;;5113994;28;20409;-53
2023/12/25 02:14:31;;;;;;;6.93;1.63;;;10.90;9.80;;;;;;5113125;28;20283;-52
2023/12/25 02:16:57;;;;;;;10.10;1.50;;;10.90;11.20;;;;;;5113054;28;20425;-52
2023/12/25 02:19:36;;;;;;;3.77;1.40;;;10.90;10.10;;;;;;5113382;28;20411;-53
2023/12/25 02:22:02;;;;;;;7.37;1.70;;;10.90;9.10;;;;;;5114032;28;20197;-52
2023/12/25 02:24:30;;;;;;;3.20;1.17;;;11.00;7.70;;;;;;5113944;28;20907;-53
2023/12/25 02:26:56;;;;;;;12.70;2.30;;;11.00;6.80;;;;;;5113817;28;20753;-53
2023/12/25 02:29:22;;;;;;;10.30;1.40;;;11.00;7.60;;;;;;5113296;28;20410;-53
2023/12/25 02:31:48;;;;;;;11.90;2.23;;;11.00;6.00;;;;;;5112331;28;20176;-53
2023/12/25 02:34:14;;;;;;;8.60;1.80;;;10.90;8.70;;;;;;5113652;28;20269;-52
2023/12/25 02:36:40;;;;;;;5.30;1.53;;;11.00;4.60;;;;;;5114204;28;20414;-53
2023/12/25 02:39:05;;;;;;;10.87;1.63;;;11.00;1.00;;;;;;5112420;28;20419;-53
2023/12/25 02:41:31;;;;;;;10.60;2.60;;;11.00;1.00;;;;;;5112902;28;20706;-53
2023/12/25 02:43:56;;;;;;;11.43;1.70;;;11.00;1.00;;;;;;5113013;28;20541;-53
2023/12/25 02:46:22;;;;;;;5.53;1.77;;;11.00;1.00;;;;;;5113314;28;20173;-53
2023/12/25 02:48:47;;;;;;;6.93;1.83;;;11.00;1.00;;;;;;5112537;28;20181;-53
2023/12/25 02:51:13;;;;;;;8.03;2.50;;;11.00;1.00;;;;;;5114107;28;20568;-53
2023/12/25 02:53:38;;;;;;;6.07;1.60;;;10.90;1.00;;;;;;5112594;28;20726;-53
2023/12/25 02:56:04;;;;;;;10.07;1.33;;;10.90;1.00;;;;;;5112238;28;20609;-53
2023/12/25 02:58:30;;;;;;;10.20;1.60;;;10.90;1.00;;;;;;5113125;28;20177;-53
2023/12/25 03:00:56;;;;;;;2.50;0.87;;;10.90;1.00;;;;;;5113152;28;20823;-54
2023/12/25 03:03:21;;;;;;;7.90;1.67;;;10.90;1.00;;;;;;5111248;28;20173;-53
2023/12/25 03:05:47;;;;;;;5.70;1.57;;;10.90;1.00;;;;;;5113644;28;20187;-53
2023/12/25 03:08:12;;;;;;;3.40;1.17;;;10.90;1.00;;;;;;5112643;28;20243;-53
2023/12/25 03:10:38;;;;;;;7.53;1.90;;;10.80;1.00;;;;;;5111522;28;20647;-54
2023/12/25 03:13:03;;;;;;;11.37;1.67;;;10.70;1.00;;;;;;5112588;28;20184;-53
2023/12/25 03:15:29;;;;;;;12.63;1.90;;;10.60;1.00;;;;;;5112598;28;20179;-53
2023/12/25 03:17:54;;;;;;;7.30;1.83;;;10.60;1.00;;;;;;5112926;28;20185;-54
2023/12/25 03:20:22;;;;;;;13.57;3.20;;;10.60;1.00;;;;;;5110563;28;20211;-53
2023/12/25 03:22:48;;;;;;;7.43;2.40;;;10.60;1.00;;;;;;5112019;28;20185;-53
2023/12/25 03:25:14;;;;;;;7.67;1.93;;;10.60;1.00;;;;;;5113454;28;20749;-53
2023/12/25 03:27:39;;;;;;;8.13;1.33;;;10.60;1.00;;;;;;5111432;28;20546;-53
2023/12/25 03:30:06;;;;;;;0.50;0.40;;;10.70;1.00;;;;;;5112187;28;20259;-54
2023/12/25 03:32:33;;;;;;;10.13;2.60;;;10.70;1.00;;;;;;5112384;28;20181;-53
2023/12/25 03:34:59;;;;;;;2.07;0.70;;;10.60;1.00;;;;;;5112468;28;20422;-54
2023/12/25 03:37:25;;;;;;;3.47;1.07;;;10.60;1.00;;;;;;5111245;28;20418;-54
2023/12/25 03:39:51;;;;;;;1.90;0.70;;;10.60;1.00;;;;;;5112315;28;20186;-53
2023/12/25 03:42:17;;;;;;;10.03;1.53;;;10.60;1.00;;;;;;5111500;28;20469;-54
2023/12/25 03:44:43;;;;;;;5.43;0.97;;;10.50;1.00;;;;;;5110836;28;20414;-53
2023/12/25 03:47:08;;;;;;;4.33;0.67;;;10.50;1.00;;;;;;5112300;28;20267;-55
2023/12/25 03:49:34;;;;;;;1.70;0.70;;;10.50;1.00;;;;;;5112665;28;20173;-53
2023/12/25 03:51:59;;;;;;;1.57;0.53;;;10.50;1.00;;;;;;5112388;28;20177;-52
2023/12/25 03:54:25;;;;;;;3.30;1.13;;;10.50;1.00;;;;;;5110299;28;20181;-53
2023/12/25 03:56:51;;;;;;;3.70;1.07;;;10.50;1.00;;;;;;5112853;28;20184;-54
2023/12/25 03:59:16;;;;;;;0.97;0.73;;;10.50;1.00;;;;;;5111645;28;20181;-54
2023/12/25 04:01:42;;;;;;;8.43;1.83;;;10.50;1.00;;;;;;5111180;28;20331;-53
2023/12/25 04:04:07;;;;;;;3.63;1.30;;;10.50;1.00;;;;;;5111656;28;20282;-53
2023/12/25 04:06:33;;;;;;;5.23;1.60;;;10.50;1.00;;;;;;5111468;28;20168;-52
2023/12/25 04:08:58;;;;;;;9.50;2.17;;;10.50;1.00;;;;;;5110166;28;20180;-52
2023/12/25 04:11:24;;;;;;;9.50;1.97;;;10.50;1.00;;;;;;5112556;28;20210;-53
2023/12/25 04:13:54;;;;;;;0.60;0.43;;;10.50;1.00;;;;;;5111927;28;20225;-54
2023/12/25 04:16:25;;;;;;;3.90;0.63;;;10.50;1.00;;;;;;5110831;28;20188;-53
2023/12/25 04:18:55;;;;;;;15.37;2.43;;;10.50;1.00;;;;;;5110986;28;20421;-53
2023/12/25 04:21:30;;;;;;;20.40;3.17;;;10.40;1.00;;;;;;5110474;28;20469;-53
2023/12/25 04:23:57;;;;;;;12.10;2.37;;;10.40;1.00;;;;;;5111590;28;20414;-53
2023/12/25 04:26:24;;;;;;;11.17;2.30;;;10.40;1.00;;;;;;5111220;28;20430;-52
2023/12/25 04:28:50;;;;;;;12.47;2.40;;;10.40;1.00;;;;;;5111252;28;20418;-54
2023/12/25 04:31:16;;;;;;;13.67;2.50;;;10.40;1.00;;;;;;5111517;28;20423;-52
2023/12/25 04:33:42;;;;;;;12.43;2.43;;;10.40;1.00;;;;;;5110940;28;20411;-52
2023/12/25 04:36:08;;;;;;;13.33;1.97;;;10.30;1.00;;;;;;5110309;28;20403;-54
2023/12/25 04:38:34;;;;;;;16.13;2.40;;;10.40;1.00;;;;;;5110795;28;20180;-53
2023/12/25 04:41:00;;;;;;;17.57;2.93;;;10.40;1.00;;;;;;5111386;28;20931;-52
2023/12/25 04:43:25;;;;;;;17.30;2.63;;;10.30;1.00;;;;;;5111308;28;20192;-53
2023/12/25 04:45:51;;;;;;;12.87;2.60;;;10.30;1.00;;;;;;5111572;28;20638;-53
2023/12/25 04:48:17;;;;;;;19.97;3.07;;;10.30;1.00;;;;;;5109668;28;20310;-52
2023/12/25 04:50:43;;;;;;;18.10;2.60;;;10.30;1.00;;;;;;5110766;28;20673;-53
2023/12/25 04:53:09;;;;;;;11.93;2.23;;;10.30;1.00;;;;;;5110702;28;20653;-52
2023/12/25 04:55:37;;;;;;;12.23;2.10;;;10.20;1.00;;;;;;5110973;28;20417;-52
2023/12/25 04:58:03;;;;;;;9.80;2.23;;;10.30;1.00;;;;;;5110701;28;20441;-53
2023/12/25 05:00:28;;;;;;;15.50;2.30;;;10.20;1.00;;;;;;5111209;28;20940;-53
2023/12/25 05:02:54;;;;;;;12.47;2.53;;;10.10;1.00;;;;;;5109291;28;20181;-54
2023/12/25 05:05:20;;;;;;;20.03;3.27;;;10.10;1.00;;;;;;5110938;28;20272;-54
2023/12/25 05:07:45;;;;;;;32.27;3.20;;;10.10;1.00;;;;;;5111177;28;20289;-54
2023/12/25 05:10:11;;;;;;;11.03;2.10;;;10.00;1.00;;;;;;5109590;28;20234;-54
2023/12/25 05:12:37;;;;;;;10.40;2.83;;;10.00;1.00;;;;;;5113726;28;20201;-54
2023/12/25 05:15:03;;;;;;;15.93;2.87;;;10.00;1.00;;;;;;5114325;28;20624;-54
2023/12/25 05:17:29;;;;;;;18.70;2.70;;;10.00;1.00;;;;;;5114421;28;20661;-54
2023/12/25 05:19:54;;;;;;;12.93;2.63;;;10.00;1.00;;;;;;5114369;28;20450;-54
2023/12/25 05:22:20;;;;;;;19.20;2.73;;;10.00;1.00;;;;;;5114417;28;20243;-54
2023/12/25 05:24:45;;;;;;;11.20;2.37;;;9.90;1.00;;;;;;5114570;28;20249;-54
2023/12/25 05:27:11;;;;;;;13.03;3.23;;;9.90;1.00;;;;;;5114967;28;20177;-54
2023/12/25 05:29:37;;;;;;;15.50;1.97;;;9.90;1.00;;;;;;5114336;28;20181;-54
2023/12/25 05:32:03;;;;;;;11.90;2.50;;;9.90;1.00;;;;;;5112847;28;20184;-53
2023/12/25 05:34:28;;;;;;;17.43;3.10;;;9.90;1.00;;;;;;5114787;28;20407;-53
2023/12/25 05:36:54;;;;;;;17.90;4.30;;;9.90;1.00;;;;;;5115366;28;20687;-54
2023/12/25 05:39:19;;;;;;;12.23;2.73;;;9.90;1.00;;;;;;5114975;28;20703;-53
2023/12/25 05:41:45;;;;;;;17.70;3.53;;;9.90;1.00;;;;;;5113787;28;20690;-53
2023/12/25 05:44:11;;;;;;;15.80;2.57;;;9.90;1.00;;;;;;5114872;28;20184;-53
2023/12/25 05:46:37;;;;;;;15.97;2.30;;;9.90;1.00;;;;;;5113408;28;20204;-53
2023/12/25 05:49:03;;;;;;;15.60;3.17;;;9.90;1.00;;;;;;5113777;28;20189;-52
2023/12/25 05:51:29;;;;;;;10.40;2.43;;;9.80;1.00;;;;;;5114216;28;20219;-53
2023/12/25 05:53:54;;;;;;;3.20;1.17;;;9.80;1.00;;;;;;5114563;28;20434;-54
2023/12/25 05:56:20;;;;;;;19.67;2.53;;;9.80;1.00;;;;;;5113798;28;20664;-52
2023/12/25 05:58:45;;;;;;;19.90;3.10;;;9.80;1.00;;;;;;5112457;28;20237;-53
2023/12/25 06:01:12;;;;;;;12.23;2.70;;;9.80;1.00;;;;;;5113782;28;20201;-52
2023/12/25 06:03:39;;;;;;;9.63;2.47;;;9.80;1.00;;;;;;5114229;28;20212;-51
2023/12/25 06:06:05;;;;;;;13.87;2.97;;;9.70;1.00;;;;;;5114549;28;20418;-52
2023/12/25 06:08:30;;;;;;;13.37;2.40;;;9.70;1.00;;;;;;5113128;28;20466;-52
2023/12/25 06:10:57;;;;;;;18.53;3.27;;;9.70;1.00;;;;;;5114214;28;20538;-52
2023/12/25 06:13:23;;;;;;;13.40;2.70;;;9.70;1.00;;;;;;5114083;28;20650;-52
2023/12/25 06:15:51;;;;;;;16.90;3.60;;;9.60;1.00;;;;;;5112839;28;20470;-52
2023/12/25 06:18:17;;;;;;;22.90;3.93;;;9.60;1.00;;;;;;5113477;28;20849;-52
2023/12/25 06:20:43;;;;;;;15.27;3.23;;;9.60;1.00;;;;;;5113942;28;20450;-52
2023/12/25 06:23:09;;;;;;;18.93;3.07;;;9.50;1.00;;;;;;5113133;28;20205;-52
2023/12/25 06:25:35;;;;;;;17.37;3.20;;;9.50;1.00;;;;;;5112877;28;20468;-52
2023/12/25 06:28:01;;;;;;;17.43;3.10;;;9.50;1.00;;;;;;5114133;28;20318;-52
2023/12/25 06:30:26;;;;;;;22.93;3.67;;;9.60;1.00;;;;;;5113742;28;20896;-54
2023/12/25 06:32:52;;;;;;;27.70;4.00;;;9.50;1.00;;;;;;5112646;28;20203;-52
2023/12/25 06:35:17;;;;;;;28.53;4.30;;;9.50;1.00;;;;;;5113638;28;20302;-54
2023/12/25 06:37:43;;;;;;;17.10;3.30;;;9.50;1.00;;;;;;5113753;28;20181;-54
2023/12/25 06:40:09;;;;;;;20.50;3.63;;;9.50;1.00;;;;;;5111799;28;20176;-54
2023/12/25 06:42:34;;;;;;;20.33;3.63;;;9.40;1.00;;;;;;5113692;28;20192;-53
2023/12/25 06:45:00;;;;;;;22.60;3.90;;;9.40;1.00;;;;;;5112316;28;20423;-53
2023/12/25 06:47:26;;;;;;;35.10;3.97;;;9.40;1.00;;;;;;5114033;28;20205;-53
2023/12/25 06:49:52;;;;;;;22.33;3.73;;;9.40;1.00;;;;;;5114151;28;20181;-53
2023/12/25 06:52:18;;;;;;;21.97;3.97;;;9.30;1.00;;;;;;5111080;28;20483;-53
2023/12/25 06:54:44;;;;;;;21.90;3.53;;;9.30;1.00;;;;;;5113485;28;20431;-53
2023/12/25 06:57:11;;;;;;;26.07;4.20;;;9.30;1.00;;;;;;5112647;28;20403;-53
2023/12/25 06:59:37;;;;;;;26.13;4.10;;;9.30;1.00;;;;;;5112262;28;20417;-53
2023/12/25 07:02:03;;;;;;;29.30;4.70;;;9.30;1.00;;;;;;5112888;28;20955;-53
2023/12/25 07:04:29;;;;;;;28.53;3.80;;;9.30;1.00;;;;;;5113515;28;20513;-53
2023/12/25 07:06:54;;;;;;;21.40;4.83;;;9.30;1.00;;;;;;5111630;28;20239;-53
2023/12/25 07:09:20;;;;;;;23.73;3.67;;;9.30;1.00;;;;;;5111712;28;20187;-53
2023/12/25 07:11:45;;;;;;;18.33;4.33;;;9.30;1.00;;;;;;5113697;28;20223;-53
2023/12/25 07:14:11;;;;;;;21.70;4.03;;;9.20;1.00;;;;;;5111890;28;20173;-53
2023/12/25 07:16:37;;;;;;;21.27;3.60;;;9.20;1.00;;;;;;5112902;28;20177;-53
2023/12/25 07:19:03;;;;;;;26.20;3.80;;;9.20;1.00;;;;;;5112469;28;20180;-53
2023/12/25 07:21:28;;;;;;;28.93;4.20;;;9.20;1.00;;;;;;5111680;28;20205;-52
2023/12/25 07:23:56;;;;;;;20.87;4.53;;;9.20;1.00;;;;;;5112539;28;20513;-53
2023/12/25 07:26:21;;;;;;;32.70;4.13;;;9.20;1.00;;;;;;5112648;28;20685;-53
2023/12/25 07:28:48;;;;;;;30.27;4.23;;;9.10;1.00;;;;;;5111347;28;20456;-53
2023/12/25 07:31:15;;;;;;;28.33;3.83;;;9.10;1.00;;;;;;5111853;28;20185;-53
2023/12/25 07:33:41;;;;;;;21.37;3.63;;;9.00;1.00;;;;;;5113063;28;20414;-53
2023/12/25 07:36:06;;;;;;;23.13;4.27;;;9.00;1.00;;;;;;5111931;28;20419;-53
2023/12/25 07:38:32;;;;;;;24.03;5.70;;;9.00;1.00;;;;;;5110819;28;20269;-53
2023/12/25 07:40:58;;;;;;;26.67;4.60;;;8.90;1.00;;;;;;5111583;28;20211;-53
2023/12/25 07:43:24;;;;;;;23.83;3.73;;;8.90;1.00;;;;;;5112311;28;20213;-53
2023/12/25 07:45:50;;;;;;;26.53;3.63;;;8.80;1.00;;;;;;5110891;28;20184;-53
2023/12/25 07:48:16;;;;;;;32.33;4.10;;;8.80;1.00;;;;;;5112357;28;20418;-53
2023/12/25 07:50:42;;;;;;;25.10;4.80;;;8.70;1.00;;;;;;5112458;28;20478;-53
2023/12/25 07:53:08;;;;;;;24.73;4.67;;;8.70;1.00;;;;;;5110745;28;20654;-53
2023/12/25 07:55:36;;;;;;;26.00;4.43;;;8.70;1.00;;;;;;5111841;28;20509;-53
2023/12/25 07:58:02;;;;;;;29.60;5.70;;;8.60;1.00;;;;;;5111621;28;20238;-53
2023/12/25 08:00:28;;;;;;;29.97;4.90;;;8.60;1.00;;;;;;5111284;28;20856;-53
2023/12/25 08:02:54;;;;;;;28.67;4.80;;;8.60;1.00;;;;;;5112483;28;20221;-53
2023/12/25 08:05:20;;;;;;;24.67;4.20;;;8.60;1.00;;;;;;5111470;28;20259;-53
2023/12/25 08:07:52;;;;;;;23.20;3.90;;;8.60;1.00;;;;;;5038096;28;20560;-53
2023/12/25 08:10:17;;;;;;;19.27;3.83;;;8.60;1.00;;;;;;5033042;28;20873;-53
2023/12/25 08:12:43;;;;;;;22.10;4.87;;;8.50;1.00;;;;;;5036610;28;20198;-53
2023/12/25 08:15:12;;;;;;;26.97;4.00;;;8.60;1.00;;;;;;5033245;28;20186;-53
2023/12/25 08:17:39;;;;;;;22.23;3.90;;;8.50;1.00;;;;;;5032698;28;20582;-53
2023/12/25 08:20:06;;;;;;;24.17;3.30;;;8.50;1.00;;;;;;5035245;28;20524;-53
2023/12/25 08:22:32;;;;;;;39.70;4.83;;;8.60;1.00;;;;;;5027247;28;20430;-53
2023/12/25 08:24:58;;;;;;;30.03;4.00;;;8.60;1.00;;;;;;5036553;28;20435;-53
2023/12/25 08:27:23;;;;;;;25.70;6.00;;;8.70;1.00;;;;;;5027867;28;20984;-53
2023/12/25 08:29:49;;;;;;;30.30;4.83;;;8.70;1.00;;;;;;5035005;28;20213;-53
2023/12/25 08:32:14;;;;;;;26.97;4.10;;;8.60;1.00;;;;;;5030178;28;20649;-53
2023/12/25 08:34:41;;;;;;;28.37;3.73;;;8.60;1.00;;;;;;5030106;28;20293;-53
2023/12/25 08:37:07;;;;;;;25.00;4.03;;;8.60;1.00;;;;;;5033044;28;20199;-53
2023/12/25 08:39:33;;;;;;;30.50;4.57;;;8.60;1.00;;;;;;5034775;28;20471;-53
2023/12/25 08:42:01;;;;;;;37.20;5.10;;;8.60;1.00;;;;;;5035087;28;20454;-55
2023/12/25 08:44:30;;;;;;;34.83;5.00;;;8.60;1.00;;;;;;5040078;28;20469;-52
2023/12/25 08:46:55;;;;;;;26.87;4.53;;;8.60;1.00;;;;;;5036296;28;20470;-53
2023/12/25 08:49:21;;;;;;;20.87;3.63;;;8.60;1.00;;;;;;5032705;28;20445;-53
2023/12/25 08:51:46;;;;;;;25.60;4.40;;;8.70;1.00;;;;;;5029092;28;20192;-53
2023/12/25 08:54:12;;;;;;;30.07;4.70;;;8.70;1.00;;;;;;5031688;28;20183;-54
2023/12/25 08:56:38;;;;;;;25.97;4.57;;;8.70;1.00;;;;;;5032147;28;20214;-52
2023/12/25 08:59:05;;;;;;;26.77;4.10;;;8.60;1.00;;;;;;5030696;28;20184;-53
2023/12/25 09:01:31;;;;;;;32.53;4.87;;;8.50;1.00;;;;;;5032050;28;20253;-55
2023/12/25 09:03:57;;;;;;;23.83;4.77;;;8.60;1.00;;;;;;5030920;28;20442;-53
2023/12/25 09:06:23;;;;;;;31.03;4.07;;;8.50;1.00;;;;;;5030625;28;20564;-54
2023/12/25 09:08:49;;;;;;;24.50;3.50;;;8.50;1.00;;;;;;5029258;28;20192;-54
2023/12/25 09:11:15;;;;;;;28.37;4.50;;;8.50;1.00;;;;;;5032292;28;20444;-54
2023/12/25 09:13:42;;;;;;;26.70;4.40;;;8.50;1.00;;;;;;5031729;28;20203;-54
2023/12/25 09:16:08;;;;;;;26.27;3.80;;;8.50;1.00;;;;;;5033006;28;20434;-54
2023/12/25 09:18:34;;;;;;;15.97;2.90;;;8.60;1.00;;;;;;5026141;28;20195;-54
2023/12/25 09:21:00;;;;;;;23.10;3.03;;;8.50;1.00;;;;;;5023872;28;20191;-54
2023/12/25 09:23:26;;;;;;;23.73;3.47;;;8.60;1.00;;;;;;5014824;28;20926;-54
2023/12/25 09:25:51;;;;;;;28.20;3.90;;;8.50;1.00;;;;;;5019576;28;20735;-54
2023/12/25 09:28:17;;;;;;;25.07;4.80;;;8.50;1.00;;;;;;5021934;28;20660;-54
2023/12/25 09:30:44;;;;;;;28.00;4.20;;;8.60;1.00;;;;;;5018804;28;20278;-55
2023/12/25 09:33:10;;;;;;;24.60;5.10;;;8.60;1.00;;;;;;5020806;28;20195;-54
2023/12/25 09:35:35;;;;;;;20.57;4.00;;;8.70;1.00;;;;;;5021026;28;20768;-54
2023/12/25 09:38:01;;;;;;;29.07;3.67;;;8.80;1.00;;;;;;5021967;28;20188;-54
2023/12/25 09:40:27;;;;;;;36.07;4.73;;;8.70;1.00;;;;;;5014434;28;20200;-54
2023/12/25 09:42:53;;;;;;;21.23;4.37;;;8.80;1.00;;;;;;5018247;28;20449;-54
2023/12/25 09:45:18;;;;;;;30.80;5.10;;;8.70;1.00;;;;;;5015499;28;20184;-54
2023/12/25 09:47:45;;;;;;;42.33;4.50;;;8.70;1.00;;;;;;5015212;28;20211;-52
2023/12/25 09:50:11;;;;;;;49.57;4.80;;;8.70;1.00;;;;;;5011341;28;20551;-54
2023/12/25 09:52:37;;;;;;;19.53;4.67;;;8.70;1.00;;;;;;5020302;28;20533;-54
2023/12/25 09:55:03;;;;;;;23.50;4.27;;;8.60;1.00;;;;;;5016681;28;20530;-54
2023/12/25 09:57:30;;;;;;;27.30;4.73;;;8.60;1.00;;;;;;5023670;28;20187;-54
2023/12/25 09:59:56;;;;;;;36.13;5.33;;;8.60;1.00;;;;;;5032459;28;20438;-54
2023/12/25 10:02:23;;;;;;;25.60;4.50;;;8.50;1.00;;;;;;5016512;28;20437;-54
2023/12/25 10:04:52;;;;;;;32.77;5.97;;;8.50;1.00;;;;;;5018301;28;20443;-54
2023/12/25 10:07:21;;;;;;;32.27;3.80;;;8.50;1.00;;;;;;5015749;28;20536;-54
2023/12/25 10:09:53;;;;;;;27.23;4.43;;;8.50;1.00;;;;;;5019012;28;20499;-53
2023/12/25 10:12:19;;;;;;;26.03;4.60;;;8.50;1.00;;;;;;5013465;28;20442;-53
2023/12/25 10:14:45;;;;;;;26.53;3.97;;;8.50;1.00;;;;;;5015678;28;20538;-53
2023/12/25 10:17:11;;;;;;;21.53;3.73;;;8.50;1.00;;;;;;5019916;28;20649;-54
2023/12/25 10:19:51;;;;;;;41.47;4.53;;;8.50;1.00;;;;;;5019298;28;20997;-53
2023/12/25 10:22:27;;;;;;;27.87;4.60;;;8.60;1.00;;;;;;5016859;28;20562;-53
2023/12/25 10:24:54;;;;;;;21.93;3.80;;;8.60;1.00;;;;;;5016317;28;20442;-53
2023/12/25 10:27:22;;;;;;;29.07;4.07;;;8.60;1.00;;;;;;5018596;28;20566;-54
2023/12/25 10:29:47;;;;;;;25.00;3.83;;;8.60;1.00;;;;;;5015608;28;20461;-52
2023/12/25 10:32:20;;;;;;;26.97;4.10;;;8.70;1.00;;;;;;5014165;28;20435;-54
2023/12/25 10:34:45;;;;;;;17.50;2.97;;;8.90;1.00;;;;;;5015310;28;20671;-54
2023/12/25 10:37:12;;;;;;;24.20;3.90;;;9.40;1.00;;;;;;5014347;28;20442;-54
2023/12/25 10:39:38;;;;;;;43.73;4.67;;;10.00;1.00;;;;;;5015430;28;20188;-54
2023/12/25 10:42:05;;;;;;;18.70;3.30;;;10.40;1.00;;;;;;5023771;28;20434;-53
2023/12/25 10:44:33;;;;;;;21.77;3.43;;;10.50;1.00;;;;;;5026251;28;20322;-54
2023/12/25 10:47:02;;;;;;;19.67;3.20;;;10.50;1.00;;;;;;5022778;28;20479;-54
2023/12/25 10:49:29;;;;;;;20.57;3.50;;;10.60;1.00;;;;;;5025480;28;20438;-54
2023/12/25 10:51:55;;;;;;;19.50;3.30;;;10.50;1.00;;;;;;5019078;28;20454;-53
2023/12/25 10:54:23;;;;;;;29.73;4.10;;;10.60;1.00;;;;;;5019111;28;20477;-54
2023/12/25 10:56:50;;;;;;;30.17;4.53;;;11.20;1.00;;;;;;5024004;28;20434;-53
2023/12/25 10:59:24;;;;;;;20.37;3.87;;;11.60;1.00;;;;;;5028414;28;20529;-53
2023/12/25 11:01:50;;;;;;;22.63;4.10;;;11.70;1.00;;;;;;5029728;28;20528;-53
2023/12/25 11:04:17;;;;;;;19.60;3.30;;;11.70;1.00;;;;;;5030333;28;20437;-53
2023/12/25 11:06:46;;;;;;;19.63;3.70;;;12.50;1.00;;;;;;5028654;28;20493;-54
2023/12/25 11:09:12;;;;;;;27.80;4.03;;;13.10;1.00;;;;;;5019590;28;20451;-53
2023/12/25 11:11:39;;;;;;;26.30;3.53;;;13.00;1.00;;;;;;5011359;28;20534;-54
2023/12/25 11:14:06;;;;;;;22.73;4.13;;;12.80;1.00;;;;;;5012991;28;20435;-53
2023/12/25 11:16:33;;;;;;;18.23;2.87;;;12.20;1.00;;;;;;5017022;28;20564;-53
2023/12/25 11:19:00;;;;;;;27.20;4.57;;;11.80;1.00;;;;;;5014689;28;20447;-54
2023/12/25 11:21:30;;;;;;;15.03;4.00;;;11.60;1.00;;;;;;5015949;28;21002;-53
2023/12/25 11:23:58;;;;;;;16.00;3.50;;;11.70;1.00;;;;;;5014892;28;20444;-54
2023/12/25 11:26:25;;;;;;;29.13;4.17;;;11.70;1.00;;;;;;5020118;28;20234;-54
2023/12/25 11:29:11;;;;;;;23.40;3.97;;;11.60;1.00;;;;;;5016206;28;20446;-54
2023/12/25 11:31:45;;;;;;;19.43;3.37;;;11.50;1.00;;;;;;5017330;28;20438;-54
2023/12/25 11:34:30;;;;;;;21.40;4.10;;;11.50;1.00;;;;;;5014338;28;20434;-54
2023/12/25 11:36:59;;;;;;;25.70;4.87;;;11.40;1.00;;;;;;5021366;28;20450;-53
2023/12/25 11:39:28;;;;;;;18.03;3.30;;;11.20;1.00;;;;;;5021281;28;20442;-53
2023/12/25 11:41:54;;;;;;;19.73;4.23;;;10.90;1.00;;;;;;5018706;28;20438;-54
2023/12/25 11:44:31;;;;;;;23.43;4.50;;;10.90;1.00;;;;;;5023143;28;20470;-53
2023/12/25 11:47:02;;;;;;;26.40;5.30;;;10.80;1.00;;;;;;5018929;28;20882;-53
2023/12/25 11:49:28;;;;;;;22.40;3.70;;;10.40;1.00;;;;;;5015264;28;20489;-53
2023/12/25 11:51:54;;;;;;;32.13;4.30;;;10.40;1.00;;;;;;5014197;28;20474;-53
2023/12/25 11:54:20;;;;;;;25.23;5.47;;;10.80;1.00;;;;;;5012711;28;20798;-54
2023/12/25 11:56:45;;;;;;;31.60;4.73;;;11.50;1.00;;;;;;5017394;28;20192;-54
2023/12/25 11:59:12;;;;;;;25.80;4.43;;;11.70;1.00;;;;;;5016711;28;20224;-53
2023/12/25 12:01:39;;;;;;;22.43;4.30;;;11.90;1.00;;;;;;5020469;28;20277;-54
2023/12/25 12:04:05;;;;;;;24.70;4.20;;;11.90;1.00;;;;;;5020135;28;20988;-53
2023/12/25 12:06:31;;;;;;;24.70;4.13;;;11.90;1.00;;;;;;5017423;28;20494;-53
2023/12/25 12:08:57;;;;;;;22.67;4.37;;;12.20;1.00;;;;;;5019370;28;20530;-53
2023/12/25 12:11:24;;;;;;;23.43;3.73;;;12.50;1.00;;;;;;5014509;28;20195;-53
2023/12/25 12:13:50;;;;;;;21.27;3.87;;;12.80;1.00;;;;;;5022812;28;20242;-54
2023/12/25 12:16:15;;;;;;;27.93;3.70;;;12.90;1.00;;;;;;5014395;28;20445;-54
2023/12/25 12:18:41;;;;;;;14.13;3.33;;;12.50;1.00;;;;;;5011862;28;20818;-54
2023/12/25 12:21:07;;;;;;;18.83;4.17;;;12.40;1.00;;;;;;5018522;28;20184;-54
2023/12/25 12:23:32;;;;;;;22.63;3.63;;;12.70;1.00;;;;;;5009643;28;20271;-54
2023/12/25 12:25:59;;;;;;;17.83;3.70;;;13.00;1.00;;;;;;5016532;28;20230;-52
2023/12/25 12:28:25;;;;;;;22.47;3.63;;;12.80;1.00;;;;;;5014882;28;20199;-54
2023/12/25 12:30:51;;;;;;;20.67;3.53;;;13.10;1.00;;;;;;5018937;28;20442;-54
2023/12/25 12:33:18;;;;;;;22.07;3.53;;;13.60;1.00;;;;;;5013222;28;20443;-54
2023/12/25 12:35:48;;;;;;;11.97;2.97;;;14.40;1.00;;;;;;5020054;28;20445;-54
2023/12/25 12:38:14;;;;;;;15.37;3.23;;;15.70;1.00;;;;;;5022186;28;20449;-54
2023/12/25 12:40:40;;;;;;;18.63;3.60;;;16.40;1.00;;;;;;5019957;28;20446;-55
2023/12/25 12:43:05;;;;;;;16.00;3.10;;;16.00;1.00;;;;;;5015338;28;20439;-55
2023/12/25 12:45:31;;;;;;;19.03;3.43;;;16.30;1.00;;;;;;5025142;28;20698;-54
2023/12/25 12:47:56;;;;;;;19.73;3.63;;;15.70;1.00;;;;;;5028848;28;20219;-54